createdAt,value
2019-06-15T00:00:29.947Z,100417.23
2019-06-15T00:02:59.508Z,100409.47
2019-06-15T00:05:29.066Z,100409.52
2019-06-15T00:07:58.631Z,100426.28
2019-06-15T00:10:28.114Z,100428.13
2019-06-15T00:12:57.695Z,100433.20
2019-06-15T00:15:27.249Z,100426.95
2019-06-15T00:17:56.765Z,100413.46
2019-06-15T00:20:26.273Z,100411.81
2019-06-15T00:22:55.754Z,100413.13
2019-06-15T00:25:25.329Z,100404.44
2019-06-15T00:27:54.831Z,100405.77
2019-06-15T00:30:24.545Z,100403.64
2019-06-15T00:32:54.066Z,100400.11
2019-06-15T00:35:23.781Z,100384.39
2019-06-15T00:37:57.258Z,100376.02
2019-06-15T00:40:26.795Z,100363.41
2019-06-15T00:42:59.036Z,100364.05
2019-06-15T00:45:28.485Z,100357.70
2019-06-15T00:47:58.001Z,100351.30
2019-06-15T00:50:27.462Z,100350.22
2019-06-15T00:52:56.969Z,100340.97
2019-06-15T00:55:26.489Z,100330.50
2019-06-15T00:57:56.029Z,100328.34
2019-06-15T01:00:25.670Z,100324.33
2019-06-15T01:02:55.193Z,100330.91
2019-06-15T01:05:24.771Z,100332.73
2019-06-15T01:07:54.269Z,100338.86
2019-06-15T01:10:24.607Z,100324.78
2019-06-15T01:12:54.115Z,100322.49
2019-06-15T01:15:23.742Z,100328.20
2019-06-15T01:17:53.276Z,100328.11
2019-06-15T01:20:23.092Z,100314.09
2019-06-15T01:22:52.664Z,100312.77
2019-06-15T01:25:22.319Z,100310.47
2019-06-15T01:27:51.842Z,100309.56
2019-06-15T01:30:22.377Z,100312.59
2019-06-15T01:32:51.866Z,100317.27
2019-06-15T01:35:21.453Z,100304.64
2019-06-15T01:37:50.925Z,100307.77
2019-06-15T01:40:20.677Z,100291.55
2019-06-15T01:42:50.270Z,100292.02
2019-06-15T01:45:26.448Z,100296.34
2019-06-15T01:47:56.630Z,100291.48
2019-06-15T01:50:26.299Z,100288.05
2019-06-15T01:52:55.780Z,100286.41
2019-06-15T01:55:25.291Z,100295.67
2019-06-15T01:57:54.787Z,100298.56
2019-06-15T02:00:31.947Z,100300.55
2019-06-15T02:03:01.527Z,100302.89
2019-06-15T02:05:31.099Z,100293.03
2019-06-15T02:08:00.574Z,100296.76
2019-06-15T02:10:31.585Z,100297.02
2019-06-15T02:13:02.011Z,100304.19
2019-06-15T02:15:31.790Z,100306.02
2019-06-15T02:18:01.281Z,100304.90
2019-06-15T02:20:30.842Z,100313.25
2019-06-15T02:23:00.336Z,100311.37
2019-06-15T02:25:36.318Z,100312.75
2019-06-15T02:28:03.600Z,100310.72
2019-06-15T02:30:35.049Z,100308.92
2019-06-15T02:33:04.889Z,100310.79
2019-06-15T02:35:34.639Z,100296.30
2019-06-15T02:38:04.370Z,100297.81
2019-06-15T02:40:34.035Z,100287.47
2019-06-15T02:43:03.740Z,100284.48
2019-06-15T02:45:33.225Z,100259.14
2019-06-15T02:48:02.805Z,100236.32
2019-06-15T02:50:33.240Z,100220.86
2019-06-15T02:53:02.745Z,100206.36
2019-06-15T02:55:32.310Z,100200.42
2019-06-15T02:58:01.848Z,100201.14
2019-06-15T03:00:44.819Z,100208.83
2019-06-15T03:03:14.419Z,100212.91
2019-06-15T03:05:43.975Z,100220.06
2019-06-15T03:08:13.543Z,100217.55
2019-06-15T03:10:43.061Z,100222.00
2019-06-15T03:13:13.601Z,100218.12
2019-06-15T03:15:43.107Z,100212.75
2019-06-15T03:18:12.603Z,100214.45
2019-06-15T03:20:42.188Z,100215.84
2019-06-15T03:23:11.666Z,100225.48
2019-06-15T03:25:41.248Z,100241.88
2019-06-15T03:28:10.746Z,100245.76
2019-06-15T03:30:41.878Z,100258.78
2019-06-15T03:33:11.524Z,100252.65
2019-06-15T03:35:41.078Z,100251.22
2019-06-15T03:38:10.670Z,100262.64
2019-06-15T03:40:41.618Z,100271.61
2019-06-15T03:43:11.445Z,100300.53
2019-06-15T03:45:40.951Z,100311.81
2019-06-15T03:48:10.443Z,100322.04
2019-06-15T03:50:39.952Z,100329.20
2019-06-15T03:53:09.442Z,100325.39
2019-06-15T03:55:40.575Z,100314.08
2019-06-15T03:58:10.113Z,100322.04
2019-06-15T04:00:51.748Z,100324.87
2019-06-15T04:03:21.235Z,100320.02
2019-06-15T04:05:50.748Z,100323.88
2019-06-15T04:08:20.233Z,100324.48
2019-06-15T04:10:49.770Z,100332.30
2019-06-15T04:13:19.357Z,100340.51
2019-06-15T04:15:48.905Z,100339.53
2019-06-15T04:18:18.391Z,100339.80
2019-06-15T04:20:47.901Z,100352.27
2019-06-15T04:23:17.372Z,100359.53
2019-06-15T04:25:46.906Z,100360.86
2019-06-15T04:28:16.419Z,100350.96
2019-06-15T04:30:45.897Z,100333.91
2019-06-15T04:33:15.404Z,100348.22
2019-06-15T04:35:44.960Z,100361.89
2019-06-15T04:38:14.548Z,100367.36
2019-06-15T04:40:44.116Z,100368.30
2019-06-15T04:43:13.624Z,100365.89
2019-06-15T04:45:43.180Z,100358.87
2019-06-15T04:48:12.835Z,100359.59
2019-06-15T04:50:42.371Z,100373.70
2019-06-15T04:53:14.786Z,100372.02
2019-06-15T04:55:43.182Z,100374.20
2019-06-15T04:58:12.694Z,100370.34
2019-06-15T05:00:42.286Z,100370.62
2019-06-15T05:03:11.888Z,100376.41
2019-06-15T05:05:41.387Z,100371.33
2019-06-15T05:08:10.911Z,100373.27
2019-06-15T05:10:40.976Z,100382.86
2019-06-15T05:13:10.553Z,100379.95
2019-06-15T05:15:40.048Z,100379.25
2019-06-15T05:18:09.605Z,100387.20
2019-06-15T05:20:39.238Z,100389.09
2019-06-15T05:23:08.991Z,100395.45
2019-06-15T05:25:38.485Z,100396.31
2019-06-15T05:28:08.071Z,100405.09
2019-06-15T05:30:37.576Z,100410.22
2019-06-15T05:33:07.146Z,100410.92
2019-06-15T05:35:36.660Z,100400.30
2019-06-15T05:38:06.244Z,100401.72
2019-06-15T05:40:36.095Z,100397.66
2019-06-15T05:43:05.586Z,100390.81
2019-06-15T05:45:35.085Z,100390.58
2019-06-15T05:48:04.736Z,100386.69
2019-06-15T05:50:34.381Z,100379.16
2019-06-15T05:53:03.879Z,100377.38
2019-06-15T05:55:33.395Z,100384.87
2019-06-15T05:58:02.951Z,100382.99
2019-06-15T06:00:32.512Z,100385.68
2019-06-15T06:03:02.018Z,100382.48
2019-06-15T06:05:31.601Z,100382.80
2019-06-15T06:08:01.126Z,100382.18
2019-06-15T06:10:30.609Z,100383.49
2019-06-15T06:13:00.110Z,100387.09
2019-06-15T06:15:29.618Z,100390.34
2019-06-15T06:17:59.219Z,100398.28
2019-06-15T06:20:28.802Z,100405.83
2019-06-15T06:22:58.375Z,100422.84
2019-06-15T06:25:27.874Z,100422.59
2019-06-15T06:27:57.371Z,100423.52
2019-06-15T06:30:30.132Z,100432.16
2019-06-15T06:32:58.241Z,100431.76
2019-06-15T06:35:27.833Z,100447.95
2019-06-15T06:37:57.420Z,100451.39
2019-06-15T06:40:26.932Z,100456.19
2019-06-15T06:42:56.498Z,100452.55
2019-06-15T06:45:26.310Z,100454.06
2019-06-15T06:47:55.796Z,100450.59
2019-06-15T06:50:25.467Z,100450.02
2019-06-15T06:52:54.944Z,100449.46
2019-06-15T06:55:24.472Z,100459.31
2019-06-15T06:57:57.084Z,100467.03
2019-06-15T07:00:25.291Z,100473.75
2019-06-15T07:02:54.861Z,100470.50
2019-06-15T07:05:24.369Z,100465.03
2019-06-15T07:07:55.568Z,100472.03
2019-06-15T07:10:26.623Z,100471.24
2019-06-15T07:13:00.262Z,100471.97
2019-06-15T07:15:29.783Z,100468.91
2019-06-15T07:18:02.367Z,100469.95
2019-06-15T07:20:31.879Z,100471.58
2019-06-15T07:23:01.640Z,100481.16
2019-06-15T07:25:31.602Z,100473.56
2019-06-15T07:28:07.982Z,100477.78
2019-06-15T07:30:34.253Z,100465.55
2019-06-15T07:33:03.855Z,100461.42
2019-06-15T07:35:33.405Z,100471.27
2019-06-15T07:38:03.065Z,100467.78
2019-06-15T07:40:32.558Z,100473.40
2019-06-15T07:43:02.057Z,100469.02
2019-06-15T07:45:31.644Z,100464.57
2019-06-15T07:48:01.152Z,100470.09
2019-06-15T07:50:30.671Z,100469.59
2019-06-15T07:53:00.186Z,100475.38
2019-06-15T07:55:29.777Z,100481.10
2019-06-15T07:57:59.253Z,100491.54
2019-06-15T08:00:28.912Z,100489.52
2019-06-15T08:02:58.486Z,100500.39
2019-06-15T08:05:28.012Z,100503.64
2019-06-15T08:07:57.578Z,100507.91
2019-06-15T08:10:27.123Z,100516.83
2019-06-15T08:12:56.720Z,100522.58
2019-06-15T08:15:26.223Z,100536.00
2019-06-15T08:17:55.719Z,100543.72
2019-06-15T08:20:35.425Z,100554.01
2019-06-15T08:23:05.838Z,100540.84
2019-06-15T08:25:36.393Z,100555.50
2019-06-15T08:28:06.116Z,100548.74
2019-06-15T08:30:43.893Z,100553.46
2019-06-15T08:33:13.596Z,100544.66
2019-06-15T08:35:43.307Z,100569.44
2019-06-15T08:38:12.888Z,100575.59
2019-06-15T08:40:42.577Z,100568.80
2019-06-15T08:43:14.883Z,100562.00
2019-06-15T08:45:44.520Z,100582.52
2019-06-15T08:48:14.031Z,100589.27
2019-06-15T08:50:43.551Z,100588.28
2019-06-15T08:53:13.112Z,100594.82
2019-06-15T08:55:42.689Z,100602.16
2019-06-15T08:58:12.206Z,100602.09
2019-06-15T09:00:41.781Z,100612.70
2019-06-15T09:03:11.724Z,100612.88
2019-06-15T09:05:41.199Z,100622.02
2019-06-15T09:08:10.785Z,100625.14
2019-06-15T09:10:40.269Z,100630.61
2019-06-15T09:13:09.764Z,100635.77
2019-06-15T09:15:46.728Z,100646.14
2019-06-15T09:18:17.382Z,100641.31
2019-06-15T09:20:47.622Z,100655.05
2019-06-15T09:23:18.229Z,100651.50
2019-06-15T09:25:47.921Z,100665.39
2019-06-15T09:28:17.415Z,100662.25
2019-06-15T09:30:47.811Z,100668.26
2019-06-15T09:33:17.595Z,100662.48
2019-06-15T09:35:47.132Z,100675.11
2019-06-15T09:38:16.650Z,100674.08
2019-06-15T09:40:46.219Z,100674.99
2019-06-15T09:43:15.858Z,100678.77
2019-06-15T09:45:45.349Z,100681.23
2019-06-15T09:48:15.010Z,100678.06
2019-06-15T09:50:44.582Z,100690.47
2019-06-15T09:53:14.165Z,100700.77
2019-06-15T09:55:43.710Z,100707.06
2019-06-15T09:58:13.315Z,100706.68
2019-06-15T10:00:42.992Z,100708.83
2019-06-15T10:03:12.660Z,100714.83
2019-06-15T10:05:42.206Z,100704.64
2019-06-15T10:08:11.744Z,100715.23
2019-06-15T10:10:41.331Z,100715.17
2019-06-15T10:13:10.894Z,100728.43
2019-06-15T10:15:40.509Z,100715.55
2019-06-15T10:18:10.018Z,100732.25
2019-06-15T10:20:39.567Z,100731.02
2019-06-15T10:23:09.073Z,100737.72
2019-06-15T10:25:38.571Z,100733.84
2019-06-15T10:28:08.149Z,100729.91
2019-06-15T10:30:37.699Z,100728.72
2019-06-15T10:33:07.183Z,100736.08
2019-06-15T10:35:36.701Z,100733.66
2019-06-15T10:38:06.271Z,100739.67
2019-06-15T10:40:35.833Z,100743.47
2019-06-15T10:43:05.408Z,100758.03
2019-06-15T10:45:35.179Z,100748.34
2019-06-15T10:48:04.713Z,100758.39
2019-06-15T10:50:34.267Z,100748.09
2019-06-15T10:53:03.753Z,100759.49
2019-06-15T10:55:33.251Z,100764.09
2019-06-15T10:58:02.742Z,100762.46
2019-06-15T11:00:32.322Z,100767.74
2019-06-15T11:03:01.899Z,100768.92
2019-06-15T11:05:31.425Z,100764.42
2019-06-15T11:08:00.924Z,100772.55
2019-06-15T11:10:49.838Z,100772.73
2019-06-15T11:13:19.348Z,100777.37
2019-06-15T11:15:49.023Z,100784.13
2019-06-15T11:18:18.615Z,100778.53
2019-06-15T11:20:48.434Z,100782.11
2019-06-15T11:23:18.256Z,100783.20
2019-06-15T11:25:47.749Z,100786.51
2019-06-15T11:28:17.232Z,100786.31
2019-06-15T11:30:46.716Z,100787.43
2019-06-15T11:33:16.234Z,100791.20
2019-06-15T11:35:46.978Z,100781.71
2019-06-15T11:38:16.630Z,100786.30
2019-06-15T11:40:46.174Z,100785.34
2019-06-15T11:43:15.687Z,100789.53
2019-06-15T11:45:45.843Z,100793.83
2019-06-15T11:48:15.355Z,100797.42
2019-06-15T11:50:44.896Z,100799.58
2019-06-15T11:53:14.449Z,100801.46
2019-06-15T11:55:43.938Z,100807.84
2019-06-15T11:58:13.541Z,100809.36
2019-06-15T12:00:43.164Z,100814.98
2019-06-15T12:03:12.894Z,100812.20
2019-06-15T12:05:42.472Z,100821.59
2019-06-15T12:08:12.459Z,100818.73
2019-06-15T12:10:41.980Z,100822.16
2019-06-15T12:13:15.080Z,100821.06
2019-06-15T12:15:44.737Z,100810.35
2019-06-15T12:18:14.243Z,100814.70
2019-06-15T12:20:44.370Z,100814.19
2019-06-15T12:23:13.876Z,100814.53
2019-06-15T12:25:43.378Z,100815.00
2019-06-15T12:28:12.870Z,100818.36
2019-06-15T12:30:47.347Z,100819.43
2019-06-15T12:33:14.425Z,100817.59
2019-06-15T12:35:43.911Z,100818.20
2019-06-15T12:38:13.490Z,100812.30
2019-06-15T12:40:42.993Z,100810.80
2019-06-15T12:43:12.507Z,100805.33
2019-06-15T12:45:42.465Z,100811.48
2019-06-15T12:48:15.557Z,100806.98
2019-06-15T12:50:45.115Z,100805.09
2019-06-15T12:53:14.586Z,100810.92
2019-06-15T12:55:44.069Z,100813.77
2019-06-15T12:58:13.741Z,100813.13
2019-06-15T13:00:43.264Z,100821.00
2019-06-15T13:03:12.835Z,100826.41
2019-06-15T13:05:42.423Z,100826.16
2019-06-15T13:08:11.989Z,100832.05
2019-06-15T13:10:41.501Z,100840.99
2019-06-15T13:13:11.053Z,100840.63
2019-06-15T13:15:42.259Z,100831.08
2019-06-15T13:18:11.907Z,100829.80
2019-06-15T13:20:41.453Z,100836.96
2019-06-15T13:23:11.020Z,100826.37
2019-06-15T13:25:40.546Z,100834.00
2019-06-15T13:28:10.046Z,100829.37
2019-06-15T13:30:39.549Z,100832.47
2019-06-15T13:33:09.271Z,100837.58
2019-06-15T13:35:38.941Z,100840.00
2019-06-15T13:38:08.475Z,100836.22
2019-06-15T13:40:38.226Z,100837.55
2019-06-15T13:43:07.725Z,100839.98
2019-06-15T13:45:37.216Z,100852.95
2019-06-15T13:48:06.817Z,100850.70
2019-06-15T13:50:36.322Z,100845.72
2019-06-15T13:53:05.870Z,100846.39
2019-06-15T13:55:35.380Z,100851.19
2019-06-15T13:58:04.963Z,100850.73
2019-06-15T14:00:34.443Z,100859.86
2019-06-15T14:03:04.011Z,100859.64
2019-06-15T14:05:33.536Z,100865.69
2019-06-15T14:08:03.020Z,100847.43
2019-06-15T14:10:32.551Z,100852.33
2019-06-15T14:13:02.032Z,100855.23
2019-06-15T14:15:31.539Z,100855.08
2019-06-15T14:18:01.029Z,100862.57
2019-06-15T14:20:30.571Z,100865.07
2019-06-15T14:23:00.170Z,100862.64
2019-06-15T14:25:29.731Z,100861.08
2019-06-15T14:27:59.280Z,100865.61
2019-06-15T14:30:28.930Z,100863.75
2019-06-15T14:32:58.480Z,100862.53
2019-06-15T14:35:28.006Z,100863.80
2019-06-15T14:37:57.520Z,100861.49
2019-06-15T14:40:27.298Z,100860.61
2019-06-15T14:42:56.825Z,100859.22
2019-06-15T14:45:26.418Z,100863.07
2019-06-15T14:47:55.916Z,100867.77
2019-06-15T14:50:25.546Z,100867.86
2019-06-15T14:52:55.151Z,100868.88
2019-06-15T14:55:26.264Z,100873.30
2019-06-15T14:57:55.989Z,100871.70
2019-06-15T15:00:25.607Z,100875.23
2019-06-15T15:02:55.972Z,100867.34
2019-06-15T15:05:27.355Z,100879.41
2019-06-15T15:07:56.939Z,100869.77
2019-06-15T15:10:26.811Z,100883.70
2019-06-15T15:12:56.752Z,100884.05
2019-06-15T15:15:26.437Z,100885.79
2019-06-15T15:17:57.759Z,100876.50
2019-06-15T15:20:27.391Z,100865.64
2019-06-15T15:22:57.026Z,100868.80
2019-06-15T15:25:26.598Z,100870.55
2019-06-15T15:27:57.195Z,100878.52
2019-06-15T15:30:41.310Z,100883.42
2019-06-15T15:33:10.921Z,100878.67
2019-06-15T15:35:40.427Z,100880.17
2019-06-15T15:38:09.950Z,100884.83
2019-06-15T15:40:39.528Z,100876.86
2019-06-15T15:43:09.121Z,100877.55
2019-06-15T15:45:38.641Z,100875.25
2019-06-15T15:48:08.142Z,100877.60
2019-06-15T15:50:37.732Z,100882.77
2019-06-15T15:53:07.369Z,100877.62
2019-06-15T15:55:36.986Z,100885.06
2019-06-15T15:58:06.904Z,100872.95
2019-06-15T16:00:36.958Z,100869.54
2019-06-15T16:03:07.290Z,100863.34
2019-06-15T16:05:37.442Z,100861.55
2019-06-15T16:08:07.084Z,100860.33
2019-06-15T16:10:37.442Z,100865.20
2019-06-15T16:13:07.174Z,100866.70
2019-06-15T16:15:37.367Z,100859.72
2019-06-15T16:18:07.253Z,100872.28
2019-06-15T16:20:37.251Z,100868.23
2019-06-15T16:23:07.716Z,100865.77
2019-06-15T16:25:37.556Z,100860.77
2019-06-15T16:28:07.418Z,100858.25
2019-06-15T16:31:00.363Z,100856.75
2019-06-15T16:33:08.562Z,100853.03
2019-06-15T16:35:38.097Z,100858.52
2019-06-15T16:38:07.863Z,100854.07
2019-06-15T16:40:39.349Z,100857.66
2019-06-15T16:43:09.575Z,100849.72
2019-06-15T16:45:39.309Z,100854.11
2019-06-15T16:48:08.954Z,100856.34
2019-06-15T16:50:38.535Z,100850.14
2019-06-15T16:53:08.185Z,100853.58
2019-06-15T16:55:37.821Z,100847.63
2019-06-15T16:58:07.836Z,100851.02
2019-06-15T17:00:37.481Z,100853.80
2019-06-15T17:03:20.956Z,100852.03
2019-06-15T17:05:38.403Z,100846.27
2019-06-15T17:08:08.003Z,100853.42
2019-06-15T17:10:42.232Z,100854.75
2019-06-15T17:13:12.341Z,100853.17
2019-06-15T17:15:42.076Z,100844.09
2019-06-15T17:18:11.706Z,100850.28
2019-06-15T17:20:50.969Z,100852.62
2019-06-15T17:23:21.049Z,100855.24
2019-06-15T17:25:50.863Z,100847.78
2019-06-15T17:28:20.542Z,100848.72
2019-06-15T17:30:50.262Z,100844.11
2019-06-15T17:33:33.340Z,100842.23
2019-06-15T17:35:59.042Z,100847.84
2019-06-15T17:38:22.285Z,100846.59
2019-06-15T17:40:51.818Z,100849.30
2019-06-15T17:43:21.443Z,100846.92
2019-06-15T17:45:51.858Z,100835.21
2019-06-15T17:48:21.443Z,100836.14
2019-06-15T17:50:50.977Z,100841.27
2019-06-15T17:53:20.515Z,100842.89
2019-06-15T17:55:50.275Z,100837.33
2019-06-15T17:58:19.956Z,100841.18
2019-06-15T18:00:51.142Z,100842.70
2019-06-15T18:03:20.680Z,100839.81
2019-06-15T18:05:50.370Z,100846.73
2019-06-15T18:08:19.937Z,100847.01
2019-06-15T18:10:49.448Z,100849.39
2019-06-15T18:13:18.963Z,100854.69
2019-06-15T18:15:48.506Z,100849.03
2019-06-15T18:18:18.074Z,100845.88
2019-06-15T18:20:47.706Z,100847.50
2019-06-15T18:23:19.578Z,100848.92
2019-06-15T18:25:49.221Z,100855.77
2019-06-15T18:28:21.713Z,100857.48
2019-06-15T18:30:51.312Z,100860.00
2019-06-15T18:33:20.911Z,100853.11
2019-06-15T18:35:54.734Z,100849.91
2019-06-15T18:38:26.073Z,100840.21
2019-06-15T18:40:56.253Z,100837.20
2019-06-15T18:43:26.282Z,100839.15
2019-06-15T18:45:56.797Z,100841.06
2019-06-15T18:48:26.674Z,100834.94
2019-06-15T18:50:56.210Z,100831.85
2019-06-15T18:53:26.873Z,100835.56
2019-06-15T18:55:57.100Z,100834.52
2019-06-15T18:58:26.553Z,100840.92
2019-06-15T19:00:56.072Z,100845.38
2019-06-15T19:03:29.013Z,100849.38
2019-06-15T19:05:59.130Z,100849.78
2019-06-15T19:08:28.906Z,100851.88
2019-06-15T19:10:58.469Z,100853.06
2019-06-15T19:13:28.292Z,100860.13
2019-06-15T19:15:57.792Z,100862.91
2019-06-15T19:18:27.385Z,100865.02
2019-06-15T19:20:58.571Z,100868.44
2019-06-15T19:23:30.291Z,100873.52
2019-06-15T19:25:59.965Z,100882.17
2019-06-15T19:28:29.555Z,100880.17
2019-06-15T19:30:59.059Z,100885.21
2019-06-15T19:33:28.632Z,100880.09
2019-06-15T19:35:59.494Z,100871.31
2019-06-15T19:38:29.258Z,100877.72
2019-06-15T19:40:59.228Z,100888.81
2019-06-15T19:43:28.831Z,100888.98
2019-06-15T19:45:58.577Z,100893.41
2019-06-15T19:48:29.971Z,100893.19
2019-06-15T19:51:00.088Z,100894.39
2019-06-15T19:53:30.243Z,100888.78
2019-06-15T19:56:00.579Z,100894.93
2019-06-15T19:58:31.175Z,100907.82
2019-06-15T20:01:01.522Z,100912.13
2019-06-15T20:03:31.851Z,100902.75
2019-06-15T20:06:02.073Z,100914.48
2019-06-15T20:08:32.283Z,100911.59
2019-06-15T20:11:02.009Z,100912.65
2019-06-15T20:13:32.044Z,100914.43
2019-06-15T20:16:01.627Z,100909.23
2019-06-15T20:18:33.842Z,100915.38
2019-06-15T20:21:03.304Z,100922.50
2019-06-15T20:23:36.769Z,100919.55
2019-06-15T20:26:06.628Z,100931.70
2019-06-15T20:28:38.934Z,100928.89
2019-06-15T20:31:08.480Z,100939.67
2019-06-15T20:33:38.079Z,100932.88
2019-06-15T20:36:08.249Z,100936.97
2019-06-15T20:38:38.497Z,100937.52
2019-06-15T20:41:08.096Z,100936.70
2019-06-15T20:43:37.701Z,100943.25
2019-06-15T20:46:07.388Z,100950.77
2019-06-15T20:48:37.179Z,100950.77
2019-06-15T20:51:10.228Z,100947.67
2019-06-15T20:53:38.164Z,100950.86
2019-06-15T20:56:08.318Z,100952.28
2019-06-15T20:58:38.290Z,100960.55
2019-06-15T21:01:08.418Z,100961.41
2019-06-15T21:03:38.007Z,100964.96
2019-06-15T21:06:09.230Z,100970.02
2019-06-15T21:08:38.927Z,100973.55
2019-06-15T21:11:09.252Z,100969.49
2019-06-15T21:13:39.265Z,100974.98
2019-06-15T21:16:10.605Z,100974.79
2019-06-15T21:18:40.344Z,100981.17
2019-06-15T21:21:09.912Z,100980.56
2019-06-15T21:23:39.876Z,100976.66
2019-06-15T21:26:09.987Z,100981.82
2019-06-15T21:28:39.559Z,100983.55
2019-06-15T21:31:09.788Z,100984.98
2019-06-15T21:33:40.754Z,100995.66
2019-06-15T21:36:10.361Z,100998.28
2019-06-15T21:38:39.935Z,100994.25
2019-06-15T21:41:09.568Z,101001.16
2019-06-15T21:43:44.299Z,100999.71
2019-06-15T21:46:11.006Z,101002.27
2019-06-15T21:48:41.857Z,101000.81
2019-06-15T21:51:11.403Z,101013.39
2019-06-15T21:53:41.915Z,101013.33
2019-06-15T21:56:11.559Z,101016.19
2019-06-15T21:58:41.209Z,101015.92
2019-06-15T22:01:32.899Z,101019.42
2019-06-15T22:04:02.945Z,101019.28
2019-06-15T22:06:33.413Z,101023.73
2019-06-15T22:09:02.986Z,101026.68
2019-06-15T22:11:32.561Z,101032.41
2019-06-15T22:14:02.146Z,101032.27
2019-06-15T22:16:31.654Z,101034.09
2019-06-15T22:19:01.189Z,101036.59
2019-06-15T22:21:30.864Z,101046.17
2019-06-15T22:24:00.424Z,101046.48
2019-06-15T22:26:30.025Z,101051.09
2019-06-15T22:28:59.606Z,101054.27
2019-06-15T22:31:29.277Z,101060.44
2019-06-15T22:33:58.941Z,101070.59
2019-06-15T22:36:28.813Z,101069.81
2019-06-15T22:38:58.309Z,101073.17
2019-06-15T22:41:27.835Z,101067.95
2019-06-15T22:43:57.428Z,101076.67
2019-06-15T22:46:26.944Z,101075.94
2019-06-15T22:48:56.510Z,101078.30
2019-06-15T22:51:27.610Z,101081.16
2019-06-15T22:53:57.381Z,101086.84
2019-06-15T22:56:26.895Z,101086.26
2019-06-15T22:58:56.962Z,101088.17
2019-06-15T23:01:26.887Z,101098.03
2019-06-15T23:03:57.151Z,101095.51
2019-06-15T23:06:36.960Z,101093.29
2019-06-15T23:08:58.189Z,101095.25
2019-06-15T23:11:27.717Z,101092.17
2019-06-15T23:13:57.685Z,101089.80
2019-06-15T23:16:27.528Z,101094.81
2019-06-15T23:18:57.508Z,101103.55
2019-06-15T23:21:27.121Z,101109.90
2019-06-15T23:23:56.606Z,101112.69
2019-06-15T23:26:26.347Z,101114.90
2019-06-15T23:28:56.567Z,101109.64
2019-06-15T23:31:26.284Z,101112.92
2019-06-15T23:33:56.220Z,101107.23
2019-06-15T23:36:30.527Z,101108.08
2019-06-15T23:39:00.091Z,101106.91
2019-06-15T23:41:29.648Z,101113.58
2019-06-15T23:43:59.234Z,101112.91
2019-06-15T23:46:28.884Z,101115.66
2019-06-15T23:48:58.372Z,101110.50
2019-06-15T23:51:28.046Z,101108.94
2019-06-15T23:53:57.543Z,101113.43
2019-06-15T23:56:28.024Z,101117.43
2019-06-15T23:58:57.531Z,101120.53
